Time;durP1;ratioP1;P1;durP2;ratioP2;P2;SDS_P1;SDS_P2;PMS_P1;PMS_P2;Temp;Humidity;BMP_temperature;BMP_pressure;BME280_temperature;BME280_humidity;BME280_pressure;Samples;Min_cycle;Max_cycle;Signal;HPM_P1;HPM_P2
2021/08/15 00:01:22;;;;;;;;;;;26.50;57.80;;;;;;1558460;75;707;-73
2021/08/15 00:03:24;;;;;;;;;;;26.40;57.60;;;;;;1548163;76;1068;-73
2021/08/15 00:05:26;;;;;;;;;;;26.50;57.50;;;;;;1538903;76;805;-73
2021/08/15 00:07:28;;;;;;;;;;;26.50;57.60;;;;;;1554574;76;577;-69
2021/08/15 00:09:30;;;;;;;;;;;26.50;57.60;;;;;;1557637;75;1122;-72
2021/08/15 00:11:34;;;;;;;;;;;26.50;57.60;;;;;;1551219;76;1021;-72
2021/08/15 00:13:35;;;;;;;;;;;26.50;57.40;;;;;;1546153;76;1933;-73
2021/08/15 00:15:37;;;;;;;;;;;26.50;57.20;;;;;;1548249;75;794;-73
2021/08/15 00:17:39;;;;;;;;;;;26.40;57.30;;;;;;1549062;76;754;-72
2021/08/15 00:19:41;;;;;;;;;;;26.40;57.30;;;;;;1544553;74;1150;-73
2021/08/15 00:21:43;;;;;;;;;;;26.50;57.30;;;;;;1556171;76;890;-75
2021/08/15 00:23:45;;;;;;;;;;;26.40;57.40;;;;;;1548000;75;733;-73
2021/08/15 00:25:47;;;;;;;;;;;26.50;57.40;;;;;;1552812;75;725;-74
2021/08/15 00:27:49;;;;;;;;;;;26.40;57.40;;;;;;1540356;76;1093;-74
2021/08/15 00:29:50;;;;;;;;;;;26.40;57.30;;;;;;1532504;75;774;-75
2021/08/15 00:31:52;;;;;;;;;;;26.50;57.30;;;;;;1555593;74;741;-73
2021/08/15 00:33:56;;;;;;;;;;;26.50;57.40;;;;;;1554894;76;1926;-72
2021/08/15 00:35:58;;;;;;;;;;;26.40;57.30;;;;;;1539805;76;830;-74
2021/08/15 00:38:19;;;;;;;;;;;26.40;57.20;;;;;;1544579;76;1135;-73
2021/08/15 00:40:21;;;;;;;;;;;26.40;57.30;;;;;;1529062;75;748;-79
2021/08/15 00:42:23;;;;;;;;;;;26.50;57.20;;;;;;1526849;75;658;-79
2021/08/15 00:44:24;;;;;;;;;;;26.50;57.20;;;;;;1545158;75;773;-79
2021/08/15 00:46:26;;;;;;;;;;;26.40;57.20;;;;;;1544753;75;1213;-78
2021/08/15 00:48:28;;;;;;;;;;;26.40;57.10;;;;;;1572584;74;850;-78
2021/08/15 00:50:30;;;;;;;;;;;26.40;57.00;;;;;;1564230;74;713;-78
2021/08/15 00:52:32;;;;;;;;;;;26.40;56.90;;;;;;1546906;73;220289;-57
2021/08/15 00:54:34;;;;;;;;;;;26.40;56.80;;;;;;1544302;76;781;-57
2021/08/15 00:56:36;;;;;;;;;;;26.50;57.00;;;;;;1546769;76;777;-57
2021/08/15 00:58:38;;;;;;;;;;;26.50;56.90;;;;;;1530633;76;701;-58
2021/08/15 01:00:40;;;;;;;;;;;26.40;56.90;;;;;;1546452;75;739;-58
2021/08/15 01:02:47;;;;;;;;;;;26.40;56.90;;;;;;1546421;76;1188;-58
2021/08/15 01:04:48;;;;;;;;;;;26.40;56.80;;;;;;1546011;76;1651;-59
2021/08/15 01:06:50;;;;;;;;;;;26.50;56.80;;;;;;1536591;76;723;-60
2021/08/15 01:08:52;;;;;;;;;;;26.50;56.90;;;;;;1533878;76;735;-60
2021/08/15 01:10:54;;;;;;;;;;;26.40;56.90;;;;;;1534223;76;692;-60
2021/08/15 01:12:56;;;;;;;;;;;26.40;56.80;;;;;;1567465;75;1943;-60
2021/08/15 01:14:58;;;;;;;;;;;26.40;56.80;;;;;;1536560;76;663;-60
2021/08/15 01:17:00;;;;;;;;;;;26.40;56.80;;;;;;1529722;76;690;-59
2021/08/15 01:19:01;;;;;;;;;;;26.40;56.70;;;;;;1537003;76;708;-60
2021/08/15 01:21:07;;;;;;;;;;;26.40;56.80;;;;;;1536050;76;727;-59
2021/08/15 01:23:09;;;;;;;;;;;26.40;56.80;;;;;;1552038;75;1136;-59
2021/08/15 01:25:11;;;;;;;;;;;26.40;56.80;;;;;;1547306;76;778;-59
2021/08/15 01:27:13;;;;;;;;;;;26.40;56.90;;;;;;1541838;76;719;-59
2021/08/15 01:29:15;;;;;;;;;;;26.50;56.90;;;;;;1546771;76;804;-58
2021/08/15 01:31:16;;;;;;;;;;;26.40;57.00;;;;;;1543774;76;687;-58
2021/08/15 01:33:28;;;;;;;;;;;26.40;56.90;;;;;;1532559;76;1944;-59
2021/08/15 01:35:30;;;;;;;;;;;26.40;56.80;;;;;;1543912;76;773;-59
2021/08/15 01:37:32;;;;;;;;;;;26.40;56.80;;;;;;1539102;76;697;-58
2021/08/15 01:39:34;;;;;;;;;;;26.40;56.80;;;;;;1531450;76;779;-59
2021/08/15 01:41:35;;;;;;;;;;;26.40;56.80;;;;;;1556852;76;753;-59
2021/08/15 01:43:50;;;;;;;;;;;26.40;56.80;;;;;;1556429;76;1137;-59
2021/08/15 01:45:52;;;;;;;;;;;26.30;56.90;;;;;;1542711;76;784;-60
2021/08/15 01:47:54;;;;;;;;;;;26.40;56.80;;;;;;1541746;76;711;-59
2021/08/15 01:49:56;;;;;;;;;;;26.40;56.90;;;;;;1554897;76;718;-58
2021/08/15 01:51:58;;;;;;;;;;;26.40;56.90;;;;;;1551369;76;787;-58
2021/08/15 01:54:03;;;;;;;;;;;26.50;56.80;;;;;;1541269;76;1952;-57
2021/08/15 01:56:05;;;;;;;;;;;26.40;56.70;;;;;;1546481;76;757;-60
2021/08/15 01:58:07;;;;;;;;;;;26.40;56.80;;;;;;1542226;76;674;-59
2021/08/15 02:00:09;;;;;;;;;;;26.40;56.80;;;;;;1545096;76;786;-59
2021/08/15 02:02:11;;;;;;;;;;;26.40;56.70;;;;;;1556990;76;750;-58
2021/08/15 02:04:13;;;;;;;;;;;26.40;56.70;;;;;;1546919;76;1153;-58
2021/08/15 02:06:16;;;;;;;;;;;26.50;56.50;;;;;;1535193;76;676;-58
2021/08/15 02:08:18;;;;;;;;;;;26.40;56.40;;;;;;1543485;76;941;-58
2021/08/15 02:10:20;;;;;;;;;;;26.40;56.40;;;;;;1538582;76;722;-58
2021/08/15 02:12:22;;;;;;;;;;;26.40;56.30;;;;;;1531252;76;1068;-59
2021/08/15 02:14:23;;;;;;;;;;;26.40;56.40;;;;;;1534471;76;1932;-58
2021/08/15 02:16:25;;;;;;;;;;;26.40;56.40;;;;;;1533506;76;752;-59
2021/08/15 02:18:28;;;;;;;;;;;26.40;56.40;;;;;;1531344;76;738;-58
2021/08/15 02:20:31;;;;;;;;;;;26.40;56.40;;;;;;1551043;76;754;-58
2021/08/15 02:22:32;;;;;;;;;;;26.40;56.40;;;;;;1544225;76;1122;-59
2021/08/15 02:24:34;;;;;;;;;;;26.40;56.30;;;;;;1544434;76;785;-57
2021/08/15 02:26:36;;;;;;;;;;;26.50;56.40;;;;;;1557212;76;774;-58
2021/08/15 02:28:38;;;;;;;;;;;26.40;56.40;;;;;;1546543;76;840;-59
2021/08/15 02:30:40;;;;;;;;;;;26.40;56.40;;;;;;1553374;76;810;-59
2021/08/15 02:32:42;;;;;;;;;;;26.40;56.30;;;;;;1555171;76;1173;-59
2021/08/15 02:34:44;;;;;;;;;;;26.40;56.40;;;;;;1554871;76;1938;-58
2021/08/15 02:36:46;;;;;;;;;;;26.40;56.30;;;;;;1541377;76;718;-58
2021/08/15 02:38:47;;;;;;;;;;;26.40;56.20;;;;;;1538115;76;725;-58
2021/08/15 02:40:50;;;;;;;;;;;26.40;56.10;;;;;;1545229;76;677;-58
2021/08/15 02:42:52;;;;;;;;;;;26.40;56.20;;;;;;1547911;76;1173;-57
2021/08/15 02:44:53;;;;;;;;;;;26.40;56.30;;;;;;1533315;76;752;-57
2021/08/15 02:46:55;;;;;;;;;;;26.40;56.20;;;;;;1557300;76;785;-57
2021/08/15 02:48:57;;;;;;;;;;;26.40;56.10;;;;;;1545866;76;786;-57
2021/08/15 02:50:59;;;;;;;;;;;26.40;56.10;;;;;;1536037;76;699;-58
2021/08/15 02:53:01;;;;;;;;;;;26.40;56.10;;;;;;1535181;76;1124;-58
2021/08/15 02:55:03;;;;;;;;;;;26.40;56.10;;;;;;1555570;76;1925;-57
2021/08/15 02:57:05;;;;;;;;;;;26.40;56.20;;;;;;1543118;76;734;-57
2021/08/15 02:59:07;;;;;;;;;;;26.40;56.20;;;;;;1541297;76;777;-57
2021/08/15 03:01:09;;;;;;;;;;;26.40;56.20;;;;;;1549853;76;726;-57
2021/08/15 03:03:11;;;;;;;;;;;26.40;56.20;;;;;;1553261;76;1182;-58
2021/08/15 03:05:13;;;;;;;;;;;26.40;56.00;;;;;;1537509;76;744;-58
2021/08/15 03:07:15;;;;;;;;;;;26.40;56.00;;;;;;1545925;76;739;-58
2021/08/15 03:09:17;;;;;;;;;;;25.90;55.40;;;;;;1541956;76;754;-58
2021/08/15 03:11:19;;;;;;;;;;;26.40;55.90;;;;;;1536135;76;716;-59
2021/08/15 03:13:21;;;;;;;;;;;26.40;56.00;;;;;;1532710;76;1162;-58
2021/08/15 03:15:22;;;;;;;;;;;26.40;55.90;;;;;;1531445;76;1932;-58
2021/08/15 03:17:24;;;;;;;;;;;26.40;55.90;;;;;;1531362;76;800;-59
2021/08/15 03:19:26;;;;;;;;;;;26.40;55.90;;;;;;1531435;76;710;-58
2021/08/15 03:21:30;;;;;;;;;;;26.50;56.00;;;;;;1533785;76;711;-59
2021/08/15 03:23:32;;;;;;;;;;;26.40;56.00;;;;;;1531227;76;1155;-58
2021/08/15 03:25:36;;;;;;;;;;;26.40;56.00;;;;;;1531570;76;768;-58
2021/08/15 03:27:37;;;;;;;;;;;26.30;56.00;;;;;;1543967;76;1678;-59
2021/08/15 03:29:39;;;;;;;;;;;26.30;56.00;;;;;;1539590;76;716;-60
2021/08/15 03:31:41;;;;;;;;;;;26.40;56.10;;;;;;1531428;76;775;-61
2021/08/15 03:33:43;;;;;;;;;;;26.30;56.00;;;;;;1533340;76;1941;-59
2021/08/15 03:35:45;;;;;;;;;;;26.30;55.90;;;;;;1533743;76;677;-59
2021/08/15 03:37:47;;;;;;;;;;;26.40;55.80;;;;;;1531510;76;809;-59
2021/08/15 03:39:48;;;;;;;;;;;26.40;55.80;;;;;;1537962;76;750;-59
2021/08/15 03:41:52;;;;;;;;;;;26.40;55.90;;;;;;1536462;76;764;-59
2021/08/15 03:43:54;;;;;;;;;;;26.30;55.80;;;;;;1545882;76;1615;-59
2021/08/15 03:45:56;;;;;;;;;;;26.30;55.70;;;;;;1531437;76;768;-59
2021/08/15 03:47:58;;;;;;;;;;;26.30;55.70;;;;;;1531906;76;816;-58
2021/08/15 03:50:00;;;;;;;;;;;26.30;55.70;;;;;;1536946;76;684;-59
2021/08/15 03:52:02;;;;;;;;;;;26.30;55.60;;;;;;1531285;76;589;-59
2021/08/15 03:54:04;;;;;;;;;;;26.30;55.60;;;;;;1531240;76;1944;-59
2021/08/15 03:56:06;;;;;;;;;;;26.30;55.70;;;;;;1544903;76;716;-59
2021/08/15 03:58:07;;;;;;;;;;;26.30;55.60;;;;;;1532577;76;709;-59
2021/08/15 04:00:10;;;;;;;;;;;26.30;55.60;;;;;;1541402;76;774;-59
2021/08/15 04:02:12;;;;;;;;;;;26.40;55.70;;;;;;1546431;76;674;-59
2021/08/15 04:04:14;;;;;;;;;;;26.30;55.60;;;;;;1542856;76;1124;-59
2021/08/15 04:06:21;;;;;;;;;;;26.30;55.70;;;;;;1552353;76;738;-59
2021/08/15 04:08:19;;;;;;;;;;;26.30;55.70;;;;;;1544629;76;1474;-59
2021/08/15 04:10:21;;;;;;;;;;;26.30;55.70;;;;;;1535569;76;678;-59
2021/08/15 04:12:23;;;;;;;;;;;26.40;55.80;;;;;;1538197;76;1131;-59
2021/08/15 04:14:25;;;;;;;;;;;26.40;55.70;;;;;;1550976;76;1946;-60
2021/08/15 04:16:26;;;;;;;;;;;26.30;55.70;;;;;;1538552;76;780;-59
2021/08/15 04:18:28;;;;;;;;;;;26.30;55.80;;;;;;1531493;76;800;-59
2021/08/15 04:20:30;;;;;;;;;;;26.30;55.80;;;;;;1535730;76;787;-59
2021/08/15 04:22:32;;;;;;;;;;;26.40;55.70;;;;;;1531246;76;1065;-58
2021/08/15 04:24:34;;;;;;;;;;;26.30;56.00;;;;;;1532716;76;713;-59
2021/08/15 04:26:36;;;;;;;;;;;26.40;56.00;;;;;;1531753;76;695;-59
2021/08/15 04:28:38;;;;;;;;;;;26.40;56.20;;;;;;1542552;76;708;-58
2021/08/15 04:30:39;;;;;;;;;;;26.40;56.10;;;;;;1538586;76;725;-59
2021/08/15 04:32:41;;;;;;;;;;;26.40;56.20;;;;;;1548335;76;1145;-59
2021/08/15 04:34:43;;;;;;;;;;;26.40;56.30;;;;;;1555563;76;1903;-60
2021/08/15 04:36:45;;;;;;;;;;;26.40;56.30;;;;;;1547209;76;777;-59
2021/08/15 04:38:47;;;;;;;;;;;26.40;56.40;;;;;;1546506;76;762;-58
2021/08/15 04:40:50;;;;;;;;;;;26.40;56.30;;;;;;1544823;76;587;-58
2021/08/15 04:42:52;;;;;;;;;;;26.40;56.20;;;;;;1543762;76;1147;-59
2021/08/15 04:44:54;;;;;;;;;;;26.40;56.20;;;;;;1543312;76;750;-58
2021/08/15 04:46:56;;;;;;;;;;;26.40;56.00;;;;;;1556974;76;778;-60
2021/08/15 04:48:58;;;;;;;;;;;26.40;56.10;;;;;;1551110;76;709;-58
2021/08/15 04:50:59;;;;;;;;;;;26.40;56.00;;;;;;1549410;76;649;-58
2021/08/15 04:53:01;;;;;;;;;;;26.40;56.00;;;;;;1544121;76;1105;-59
2021/08/15 04:55:03;;;;;;;;;;;26.40;56.20;;;;;;1542983;76;1948;-58
2021/08/15 04:57:05;;;;;;;;;;;26.40;56.10;;;;;;1536723;76;772;-59
2021/08/15 04:59:07;;;;;;;;;;;26.40;56.10;;;;;;1545704;76;743;-59
2021/08/15 05:01:09;;;;;;;;;;;26.40;56.10;;;;;;1542456;76;721;-60
2021/08/15 05:03:13;;;;;;;;;;;26.40;56.20;;;;;;1548113;76;1142;-59
2021/08/15 05:05:14;;;;;;;;;;;26.50;56.20;;;;;;1547724;76;1988;-58
2021/08/15 05:07:16;;;;;;;;;;;26.40;56.20;;;;;;1548794;76;644;-58
2021/08/15 05:09:18;;;;;;;;;;;26.40;56.00;;;;;;1541000;76;674;-59
2021/08/15 05:11:20;;;;;;;;;;;26.50;56.10;;;;;;1540161;76;767;-59
2021/08/15 05:13:22;;;;;;;;;;;26.40;56.00;;;;;;1547085;76;1142;-59
2021/08/15 05:15:24;;;;;;;;;;;26.40;56.00;;;;;;1550598;76;1927;-59
2021/08/15 05:17:26;;;;;;;;;;;26.40;56.10;;;;;;1547994;76;751;-59
2021/08/15 05:19:30;;;;;;;;;;;26.40;56.30;;;;;;1548900;76;787;-59
2021/08/15 05:21:31;;;;;;;;;;;26.40;56.30;;;;;;1548908;76;1722;-59
2021/08/15 05:23:33;;;;;;;;;;;26.50;56.30;;;;;;1546233;76;1161;-59
2021/08/15 05:25:35;;;;;;;;;;;26.40;56.40;;;;;;1546581;76;783;-59
2021/08/15 05:27:37;;;;;;;;;;;26.50;56.40;;;;;;1545773;76;780;-59
2021/08/15 05:29:39;;;;;;;;;;;26.50;56.50;;;;;;1552822;76;762;-59
2021/08/15 05:31:40;;;;;;;;;;;26.50;56.60;;;;;;1552478;76;789;-59
2021/08/15 05:33:42;;;;;;;;;;;26.50;56.80;;;;;;1548526;76;1155;-59
2021/08/15 05:35:44;;;;;;;;;;;26.40;56.70;;;;;;1541575;76;1946;-59
2021/08/15 05:37:46;;;;;;;;;;;26.30;56.80;;;;;;1544652;76;657;-58
2021/08/15 05:39:48;;;;;;;;;;;26.40;56.90;;;;;;1546414;76;692;-58
2021/08/15 05:41:50;;;;;;;;;;;26.40;56.80;;;;;;1545924;76;771;-58
2021/08/15 05:43:52;;;;;;;;;;;26.40;56.80;;;;;;1552875;76;1184;-58
2021/08/15 05:45:54;;;;;;;;;;;26.50;56.80;;;;;;1547598;76;663;-59
2021/08/15 05:47:55;;;;;;;;;;;26.50;56.90;;;;;;1544768;76;762;-58
2021/08/15 05:49:57;;;;;;;;;;;26.40;56.90;;;;;;1547352;76;790;-58
2021/08/15 05:51:59;;;;;;;;;;;26.40;56.90;;;;;;1552178;76;708;-58
2021/08/15 05:54:01;;;;;;;;;;;26.50;56.90;;;;;;1543057;76;1109;-58
2021/08/15 05:56:03;;;;;;;;;;;26.50;56.90;;;;;;1541449;76;1952;-57
2021/08/15 05:58:05;;;;;;;;;;;26.50;56.90;;;;;;1550473;76;764;-58
2021/08/15 06:00:07;;;;;;;;;;;26.50;56.80;;;;;;1545295;76;729;-58
2021/08/15 06:02:09;;;;;;;;;;;26.50;56.80;;;;;;1537209;76;781;-59
2021/08/15 06:04:11;;;;;;;;;;;26.50;56.70;;;;;;1525413;78;1120;-58
2021/08/15 06:06:13;;;;;;;;;;;26.50;56.50;;;;;;1540259;76;767;-59
2021/08/15 06:08:16;;;;;;;;;;;26.50;56.50;;;;;;1547595;76;797;-57
2021/08/15 06:10:18;;;;;;;;;;;26.60;56.50;;;;;;1540643;76;720;-58
2021/08/15 06:12:20;;;;;;;;;;;26.50;56.50;;;;;;1537327;76;1237;-57
2021/08/15 06:14:21;;;;;;;;;;;26.50;56.50;;;;;;1543846;76;772;-57
2021/08/15 06:16:24;;;;;;;;;;;26.50;56.60;;;;;;1551708;76;1954;-58
2021/08/15 06:18:26;;;;;;;;;;;26.50;56.50;;;;;;1542669;76;723;-57
2021/08/15 06:20:28;;;;;;;;;;;26.50;56.50;;;;;;1544659;76;660;-58
2021/08/15 06:22:30;;;;;;;;;;;26.50;56.60;;;;;;1548131;76;1238;-58
2021/08/15 06:24:32;;;;;;;;;;;26.50;56.60;;;;;;1539835;76;768;-58
2021/08/15 06:26:34;;;;;;;;;;;26.50;56.60;;;;;;1546276;76;775;-58
2021/08/15 06:28:36;;;;;;;;;;;26.50;56.60;;;;;;1556610;76;881;-58
2021/08/15 06:30:37;;;;;;;;;;;26.50;56.70;;;;;;1545887;76;885;-57
2021/08/15 06:32:46;;;;;;;;;;;26.50;56.70;;;;;;1546119;76;1154;-57
2021/08/15 06:34:48;;;;;;;;;;;26.50;56.70;;;;;;1544615;76;1931;-60
2021/08/15 06:36:50;;;;;;;;;;;26.50;56.70;;;;;;1543796;76;726;-59
2021/08/15 06:38:52;;;;;;;;;;;26.60;56.70;;;;;;1546841;74;221206;-77
2021/08/15 06:40:56;;;;;;;;;;;26.50;56.50;;;;;;1559002;74;715;-75
2021/08/15 06:43:10;;;;;;;;;;;26.60;56.80;;;;;;1555066;74;1692;-75
2021/08/15 06:45:12;;;;;;;;;;;26.50;57.10;;;;;;1551085;74;774;-75
2021/08/15 06:47:13;;;;;;;;;;;26.70;57.10;;;;;;1555662;74;770;-73
2021/08/15 06:49:16;;;;;;;;;;;26.70;57.00;;;;;;1557760;74;1184;-74
2021/08/15 06:51:18;;;;;;;;;;;26.60;57.00;;;;;;1546467;75;789;-71
2021/08/15 06:53:20;;;;;;;;;;;26.60;56.90;;;;;;1544127;75;756;-76
2021/08/15 06:55:22;;;;;;;;;;;26.60;56.90;;;;;;1545681;75;1903;-75
2021/08/15 06:57:24;;;;;;;;;;;26.70;57.10;;;;;;1543845;75;673;-75
2021/08/15 06:59:26;;;;;;;;;;;26.60;57.10;;;;;;1545974;75;1165;-74
2021/08/15 07:01:28;;;;;;;;;;;26.60;57.10;;;;;;1547338;75;657;-75
2021/08/15 07:03:30;;;;;;;;;;;26.70;56.90;;;;;;1536123;76;1180;-77
2021/08/15 07:05:32;;;;;;;;;;;26.70;56.80;;;;;;1545836;75;701;-73
2021/08/15 07:07:34;;;;;;;;;;;26.80;56.80;;;;;;1555867;75;759;-71
2021/08/15 07:09:36;;;;;;;;;;;26.70;56.80;;;;;;1550276;75;1187;-71
2021/08/15 07:11:38;;;;;;;;;;;26.70;56.10;;;;;;1555560;75;690;-72
2021/08/15 07:13:40;;;;;;;;;;;26.70;56.40;;;;;;1553710;75;741;-71
2021/08/15 07:15:42;;;;;;;;;;;26.80;56.50;;;;;;1541837;75;1941;-70
2021/08/15 07:17:44;;;;;;;;;;;26.80;56.50;;;;;;1555233;75;787;-73
2021/08/15 07:19:46;;;;;;;;;;;26.90;56.30;;;;;;1548220;75;1125;-72
2021/08/15 07:21:47;;;;;;;;;;;26.90;56.50;;;;;;1544726;75;751;-71
2021/08/15 07:23:49;;;;;;;;;;;26.70;56.60;;;;;;1552780;75;761;-72
2021/08/15 07:25:51;;;;;;;;;;;26.90;56.50;;;;;;1557558;75;748;-72
2021/08/15 07:27:53;;;;;;;;;;;26.90;56.40;;;;;;1548611;75;778;-72
2021/08/15 07:29:55;;;;;;;;;;;26.90;56.20;;;;;;1551196;75;1149;-72
2021/08/15 07:31:57;;;;;;;;;;;27.00;56.50;;;;;;1552105;75;674;-72
2021/08/15 07:33:59;;;;;;;;;;;27.00;56.60;;;;;;1548734;75;819;-72
2021/08/15 07:36:01;;;;;;;;;;;27.10;56.80;;;;;;1551664;75;1947;-72
2021/08/15 07:38:02;;;;;;;;;;;27.00;56.50;;;;;;1548952;75;799;-72
2021/08/15 07:40:05;;;;;;;;;;;27.00;56.40;;;;;;1553137;75;1197;-72
2021/08/15 07:42:07;;;;;;;;;;;27.00;56.40;;;;;;1557626;75;1152;-72
2021/08/15 07:44:09;;;;;;;;;;;27.10;56.30;;;;;;1555328;75;907;-73
2021/08/15 07:46:13;;;;;;;;;;;27.00;56.00;;;;;;1550224;75;786;-69
2021/08/15 07:48:14;;;;;;;;;;;27.10;55.80;;;;;;1556567;75;1201;-71
2021/08/15 07:50:16;;;;;;;;;;;27.10;55.50;;;;;;1552863;75;1146;-71
2021/08/15 07:52:18;;;;;;;;;;;27.10;55.60;;;;;;1548029;75;740;-70
2021/08/15 07:54:20;;;;;;;;;;;27.10;55.50;;;;;;1556412;75;723;-70
2021/08/15 07:56:22;;;;;;;;;;;27.10;55.60;;;;;;1559293;75;1935;-70
2021/08/15 07:58:24;;;;;;;;;;;27.20;55.50;;;;;;1550001;75;757;-71
2021/08/15 08:00:26;;;;;;;;;;;27.10;55.30;;;;;;1551111;75;1097;-71
2021/08/15 08:02:28;;;;;;;;;;;27.10;55.10;;;;;;1557112;75;756;-70
2021/08/15 08:04:29;;;;;;;;;;;27.20;55.00;;;;;;1555709;75;758;-71
2021/08/15 08:06:31;;;;;;;;;;;27.10;55.00;;;;;;1550832;75;752;-71
2021/08/15 08:08:33;;;;;;;;;;;27.10;54.90;;;;;;1556920;75;1138;-71
2021/08/15 08:10:35;;;;;;;;;;;27.10;55.00;;;;;;1544701;75;735;-72
2021/08/15 08:12:37;;;;;;;;;;;27.20;54.70;;;;;;1549382;75;826;-73
2021/08/15 08:14:39;;;;;;;;;;;27.20;54.80;;;;;;1558473;75;678;-72
2021/08/15 08:16:41;;;;;;;;;;;27.10;54.90;;;;;;1540446;75;1946;-71
2021/08/15 08:18:44;;;;;;;;;;;27.20;54.70;;;;;;1552571;75;1093;-72
2021/08/15 08:20:46;;;;;;;;;;;27.20;54.60;;;;;;1545164;75;808;-72
2021/08/15 08:22:48;;;;;;;;;;;27.20;54.50;;;;;;1551802;75;795;-73
2021/08/15 08:24:50;;;;;;;;;;;27.20;54.70;;;;;;1548796;75;757;-71
2021/08/15 08:26:52;;;;;;;;;;;27.20;54.50;;;;;;1550536;75;920;-70
2021/08/15 08:28:54;;;;;;;;;;;27.20;54.50;;;;;;1558423;75;1105;-72
2021/08/15 08:30:55;;;;;;;;;;;27.30;54.40;;;;;;1550404;75;761;-72
2021/08/15 08:32:57;;;;;;;;;;;27.30;54.40;;;;;;1545940;75;779;-72
2021/08/15 08:34:59;;;;;;;;;;;27.30;54.30;;;;;;1557328;75;731;-72
2021/08/15 08:37:01;;;;;;;;;;;27.40;54.00;;;;;;1549383;75;1934;-72
2021/08/15 08:39:03;;;;;;;;;;;27.40;54.10;;;;;;1550965;75;1181;-72
2021/08/15 08:41:05;;;;;;;;;;;27.40;54.00;;;;;;1548916;75;800;-72
2021/08/15 08:43:07;;;;;;;;;;;27.40;53.90;;;;;;1558178;75;740;-72
2021/08/15 08:45:09;;;;;;;;;;;27.30;54.30;;;;;;1553551;75;738;-72
2021/08/15 08:47:11;;;;;;;;;;;27.40;54.20;;;;;;1556286;75;748;-72
2021/08/15 08:49:16;;;;;;;;;;;27.40;54.40;;;;;;1555481;75;1107;-71
2021/08/15 08:51:20;;;;;;;;;;;27.40;54.40;;;;;;1557709;75;759;-72
2021/08/15 08:53:22;;;;;;;;;;;27.40;54.10;;;;;;1550474;75;841;-72
2021/08/15 08:55:24;;;;;;;;;;;27.40;54.70;;;;;;1558721;75;813;-72
2021/08/15 08:57:26;;;;;;;;;;;27.40;54.80;;;;;;1556068;75;1936;-72
2021/08/15 08:59:28;;;;;;;;;;;27.30;54.70;;;;;;1545615;75;1105;-72
2021/08/15 09:01:29;;;;;;;;;;;27.40;54.60;;;;;;1554379;75;791;-71
2021/08/15 09:03:31;;;;;;;;;;;27.40;54.70;;;;;;1546430;75;793;-72
2021/08/15 09:05:34;;;;;;;;;;;27.40;54.40;;;;;;1552738;75;787;-72
2021/08/15 09:07:36;;;;;;;;;;;27.40;54.30;;;;;;1548671;75;720;-72
2021/08/15 09:09:39;;;;;;;;;;;27.50;54.20;;;;;;1547645;75;1107;-72
2021/08/15 09:11:41;;;;;;;;;;;27.40;54.60;;;;;;1556495;75;775;-73
2021/08/15 09:13:43;;;;;;;;;;;27.40;54.30;;;;;;1556779;75;732;-72
2021/08/15 09:15:47;;;;;;;;;;;27.50;54.30;;;;;;1547602;75;1936;-71
2021/08/15 09:17:49;;;;;;;;;;;27.40;54.20;;;;;;1539815;75;1901;-72
2021/08/15 09:19:51;;;;;;;;;;;27.40;54.70;;;;;;1551615;75;1210;-71
2021/08/15 09:21:54;;;;;;;;;;;27.40;54.40;;;;;;1555370;75;718;-70
2021/08/15 09:24:00;;;;;;;;;;;27.50;54.20;;;;;;1564154;75;775;-71
2021/08/15 09:26:11;;;;;;;;;;;27.50;54.00;;;;;;1550700;75;771;-71
2021/08/15 09:28:13;;;;;;;;;;;27.50;53.90;;;;;;1554705;75;766;-71
2021/08/15 09:30:23;;;;;;;;;;;27.60;54.40;;;;;;1552899;75;1116;-72
2021/08/15 09:32:25;;;;;;;;;;;27.50;54.20;;;;;;1552975;75;723;-72
2021/08/15 09:34:28;;;;;;;;;;;27.60;54.10;;;;;;1550540;75;783;-71
2021/08/15 09:36:33;;;;;;;;;;;27.50;54.50;;;;;;1544953;75;1929;-72
2021/08/15 09:38:37;;;;;;;;;;;27.60;54.40;;;;;;1557165;75;1133;-71
2021/08/15 09:40:39;;;;;;;;;;;27.50;54.60;;;;;;1549013;75;1862;-72
2021/08/15 09:42:42;;;;;;;;;;;27.50;54.70;;;;;;1552288;75;683;-71
2021/08/15 09:44:43;;;;;;;;;;;27.50;55.10;;;;;;1554467;75;934;-71
2021/08/15 09:47:05;;;;;;;;;;;27.50;55.20;;;;;;1554244;75;724;-69
2021/08/15 09:49:13;;;;;;;;;;;27.50;54.80;;;;;;1553531;75;1189;-71
2021/08/15 09:51:17;;;;;;;;;;;27.50;54.60;;;;;;1553337;75;758;-71
2021/08/15 09:53:25;;;;;;;;;;;27.60;54.30;;;;;;1548588;75;818;-71
2021/08/15 09:55:28;;;;;;;;;;;27.50;54.20;;;;;;1552386;75;759;-72
2021/08/15 09:57:34;;;;;;;;;;;27.60;54.20;;;;;;1546190;75;1936;-72
2021/08/15 09:59:36;;;;;;;;;;;27.60;54.30;;;;;;1550452;75;1177;-72
2021/08/15 10:01:38;;;;;;;;;;;27.50;54.60;;;;;;1549756;75;719;-71
2021/08/15 10:03:41;;;;;;;;;;;27.50;54.60;;;;;;1549311;75;783;-71
2021/08/15 10:05:44;;;;;;;;;;;27.50;54.40;;;;;;1557120;75;702;-71
2021/08/15 10:07:45;;;;;;;;;;;27.50;54.50;;;;;;1553275;75;698;-71
2021/08/15 10:09:47;;;;;;;;;;;27.60;54.60;;;;;;1551302;75;1107;-72
2021/08/15 10:11:49;;;;;;;;;;;27.50;54.70;;;;;;1554642;75;772;-71
2021/08/15 10:13:51;;;;;;;;;;;27.50;54.70;;;;;;1554324;75;677;-72
2021/08/15 10:15:57;;;;;;;;;;;27.50;54.60;;;;;;1546631;75;705;-71
2021/08/15 10:17:59;;;;;;;;;;;27.60;54.70;;;;;;1552940;75;1944;-73
2021/08/15 10:20:02;;;;;;;;;;;27.60;54.50;;;;;;1540721;75;1069;-72
2021/08/15 10:22:04;;;;;;;;;;;27.50;54.60;;;;;;1551073;75;739;-71
2021/08/15 10:24:08;;;;;;;;;;;27.50;54.70;;;;;;1551568;75;782;-72
2021/08/15 10:26:29;;;;;;;;;;;27.50;54.70;;;;;;1551553;75;1712;-71
2021/08/15 10:28:33;;;;;;;;;;;27.50;54.80;;;;;;1544928;75;841;-71
2021/08/15 10:30:37;;;;;;;;;;;27.50;54.80;;;;;;1557441;75;775;-71
2021/08/15 10:32:41;;;;;;;;;;;27.50;54.90;;;;;;1555172;75;1023;-71
2021/08/15 10:34:54;;;;;;;;;;;27.60;54.80;;;;;;1533813;75;1718;-71
2021/08/15 10:36:57;;;;;;;;;;;27.50;54.80;;;;;;1540291;75;1920;-71
2021/08/15 10:39:00;;;;;;;;;;;27.50;54.70;;;;;;1549905;75;1126;-72
2021/08/15 10:41:02;;;;;;;;;;;27.50;54.60;;;;;;1551978;75;793;-71
2021/08/15 10:43:04;;;;;;;;;;;27.50;54.50;;;;;;1555539;75;722;-71
2021/08/15 10:45:07;;;;;;;;;;;27.50;54.40;;;;;;1556430;75;766;-71
2021/08/15 10:47:14;;;;;;;;;;;27.60;54.30;;;;;;1552356;75;666;-72
2021/08/15 10:49:13;;;;;;;;;;;27.60;54.20;;;;;;1551188;75;1524;-71
2021/08/15 10:51:16;;;;;;;;;;;27.50;54.30;;;;;;1552567;75;811;-71
2021/08/15 10:53:29;;;;;;;;;;;27.40;54.20;;;;;;1543374;75;1457;-71
2021/08/15 10:55:33;;;;;;;;;;;27.50;54.20;;;;;;1550674;75;793;-71
2021/08/15 10:57:35;;;;;;;;;;;27.50;54.30;;;;;;1541798;75;1937;-71
2021/08/15 10:59:41;;;;;;;;;;;27.40;54.20;;;;;;1558645;75;1134;-71
2021/08/15 11:01:43;;;;;;;;;;;27.40;54.50;;;;;;1555691;75;651;-71
2021/08/15 11:03:50;;;;;;;;;;;27.50;54.40;;;;;;1546941;75;706;-71
2021/08/15 11:05:52;;;;;;;;;;;27.50;54.20;;;;;;1541870;75;698;-71
2021/08/15 11:07:54;;;;;;;;;;;27.40;54.40;;;;;;1553391;75;714;-71
2021/08/15 11:09:57;;;;;;;;;;;27.40;54.50;;;;;;1550953;75;1123;-71
2021/08/15 11:12:06;;;;;;;;;;;27.40;54.60;;;;;;1557636;75;781;-71
2021/08/15 11:14:23;;;;;;;;;;;27.40;54.70;;;;;;1553469;75;812;-70
2021/08/15 11:16:29;;;;;;;;;;;27.40;54.50;;;;;;1544384;75;1911;-71
2021/08/15 11:18:32;;;;;;;;;;;27.40;54.30;;;;;;1549401;75;760;-72
2021/08/15 11:20:44;;;;;;;;;;;27.50;54.30;;;;;;1543009;75;803;-71
2021/08/15 11:22:46;;;;;;;;;;;27.40;54.40;;;;;;1551380;75;648;-72
2021/08/15 11:24:49;;;;;;;;;;;27.50;54.30;;;;;;1547685;75;769;-71
2021/08/15 11:26:51;;;;;;;;;;;27.40;54.50;;;;;;1548591;75;1591;-73
2021/08/15 11:28:53;;;;;;;;;;;27.40;54.70;;;;;;1552575;75;1133;-71
2021/08/15 11:30:55;;;;;;;;;;;27.50;54.70;;;;;;1545559;75;838;-72
2021/08/15 11:32:58;;;;;;;;;;;27.50;54.80;;;;;;1552724;75;798;-72
2021/08/15 11:35:01;;;;;;;;;;;27.40;54.80;;;;;;1558037;75;650;-70
2021/08/15 11:37:04;;;;;;;;;;;27.40;55.30;;;;;;1543081;75;1930;-69
2021/08/15 11:39:08;;;;;;;;;;;27.40;55.80;;;;;;1540859;75;1145;-71
2021/08/15 11:41:09;;;;;;;;;;;27.40;56.50;;;;;;1547019;75;2081;-71
2021/08/15 11:43:15;;;;;;;;;;;27.40;56.80;;;;;;1539553;76;1168;-69
2021/08/15 11:45:17;;;;;;;;;;;27.50;55.80;;;;;;1537772;75;783;-69
2021/08/15 11:47:20;;;;;;;;;;;27.50;54.70;;;;;;1543179;75;729;-71
2021/08/15 11:49:32;;;;;;;;;;;27.50;54.50;;;;;;1544170;75;1159;-70
2021/08/15 11:51:34;;;;;;;;;;;27.60;54.70;;;;;;1534965;75;1223;-70
2021/08/15 11:53:37;;;;;;;;;;;27.50;54.80;;;;;;1555955;75;790;-71
2021/08/15 11:55:38;;;;;;;;;;;27.50;54.50;;;;;;1547146;75;765;-70
2021/08/15 11:57:45;;;;;;;;;;;27.60;54.60;;;;;;1547606;75;1944;-70
2021/08/15 11:59:47;;;;;;;;;;;27.50;54.70;;;;;;1566974;75;1082;-71
2021/08/15 12:01:51;;;;;;;;;;;27.50;54.80;;;;;;1545160;75;751;-71
2021/08/15 12:03:59;;;;;;;;;;;27.40;54.80;;;;;;1547942;75;740;-70
2021/08/15 12:06:09;;;;;;;;;;;27.50;54.80;;;;;;1542354;75;712;-70
2021/08/15 12:08:10;;;;;;;;;;;27.50;54.60;;;;;;1541945;75;1570;-69
2021/08/15 12:10:28;;;;;;;;;;;27.50;54.40;;;;;;1555859;75;1105;-70
2021/08/15 12:12:29;;;;;;;;;;;27.50;54.40;;;;;;1551727;75;746;-70